createdAt,value
2022-11-16T00:00:05.776Z,22.37
2022-11-16T00:04:13.146Z,20.63
2022-11-16T00:08:16.395Z,21.77
2022-11-16T00:12:19.748Z,20.47
2022-11-16T00:16:23.097Z,19.77
2022-11-16T00:20:27.799Z,20.70
2022-11-16T00:24:31.297Z,21.07
2022-11-16T00:28:35.078Z,22.00
2022-11-16T00:32:38.609Z,20.83
2022-11-16T00:36:43.456Z,21.93
2022-11-16T00:40:46.743Z,21.43
2022-11-16T00:44:50.051Z,20.37
2022-11-16T00:48:53.333Z,21.90
2022-11-16T00:52:58.032Z,22.20
2022-11-16T00:57:01.345Z,19.87
2022-11-16T01:01:07.513Z,20.23
2022-11-16T01:05:12.309Z,20.33
2022-11-16T01:09:17.011Z,20.10
2022-11-16T01:13:20.333Z,20.00
2022-11-16T01:17:23.664Z,20.87
2022-11-16T01:21:27.762Z,22.13
2022-11-16T01:25:34.204Z,20.97
2022-11-16T01:29:37.500Z,20.40
2022-11-16T01:33:41.061Z,20.00
2022-11-16T01:37:44.454Z,20.47
2022-11-16T01:41:49.322Z,19.47
2022-11-16T01:45:52.852Z,18.57
2022-11-16T01:50:00.763Z,19.17
2022-11-16T01:54:08.925Z,18.87
2022-11-16T01:58:16.822Z,17.10
2022-11-16T02:02:20.298Z,20.30
2022-11-16T02:06:38.662Z,20.47
2022-11-16T02:10:55.701Z,19.27
2022-11-16T02:15:10.410Z,19.87
2022-11-16T02:19:35.258Z,19.33
2022-11-16T02:24:16.118Z,21.00
2022-11-16T02:28:35.470Z,18.83
2022-11-16T02:32:46.450Z,22.43
2022-11-16T02:36:53.926Z,20.60
2022-11-16T02:41:03.004Z,18.80
2022-11-16T02:45:10.137Z,19.40
2022-11-16T02:49:19.020Z,19.80
2022-11-16T02:53:23.863Z,17.77
2022-11-16T02:57:45.713Z,18.93
2022-11-16T03:01:54.667Z,18.40
2022-11-16T03:06:04.040Z,18.93
2022-11-16T03:10:08.471Z,18.73
2022-11-16T03:14:15.968Z,20.50
2022-11-16T03:18:22.435Z,21.50
2022-11-16T03:22:32.255Z,20.20
2022-11-16T03:26:43.692Z,19.80
2022-11-16T03:30:53.764Z,20.13
2022-11-16T03:35:01.697Z,19.17
2022-11-16T03:39:11.829Z,19.50
2022-11-16T03:43:16.622Z,18.93
2022-11-16T03:47:19.955Z,20.80
2022-11-16T03:51:23.273Z,19.80
2022-11-16T03:55:28.213Z,21.43
2022-11-16T03:59:31.515Z,20.00
2022-11-16T04:03:34.901Z,17.70
2022-11-16T04:07:58.480Z,20.13
2022-11-16T04:12:20.760Z,18.13
2022-11-16T04:16:41.590Z,18.10
2022-11-16T04:21:03.382Z,19.80
2022-11-16T04:25:10.887Z,17.47
2022-11-16T04:29:15.878Z,18.53
2022-11-16T04:33:37.016Z,18.97
2022-11-16T04:37:53.506Z,17.67
2022-11-16T04:42:14.307Z,20.37
2022-11-16T04:46:36.150Z,19.30
2022-11-16T04:50:40.039Z,21.40
2022-11-16T04:54:43.374Z,20.47
2022-11-16T04:58:46.715Z,20.13
2022-11-16T05:02:53.692Z,21.40
2022-11-16T05:06:58.991Z,20.10
2022-11-16T05:11:02.254Z,20.73
2022-11-16T05:15:07.491Z,21.73
2022-11-16T05:19:29.595Z,21.17
2022-11-16T05:23:50.005Z,20.33
2022-11-16T05:27:53.309Z,20.20
2022-11-16T05:31:56.571Z,19.43
2022-11-16T05:36:01.338Z,21.23
2022-11-16T05:40:04.976Z,17.87
2022-11-16T05:44:08.312Z,21.00
2022-11-16T05:48:11.628Z,18.60
2022-11-16T05:52:16.283Z,19.77
2022-11-16T05:56:19.881Z,18.53
2022-11-16T06:00:23.403Z,17.73
2022-11-16T06:04:26.830Z,19.50
2022-11-16T06:08:32.274Z,18.67
2022-11-16T06:12:35.796Z,19.80
2022-11-16T06:16:39.118Z,19.17
2022-11-16T06:20:42.440Z,33.23
2022-11-16T06:24:47.115Z,19.57
2022-11-16T06:28:50.526Z,24.80
2022-11-16T06:32:53.826Z,19.90
2022-11-16T06:36:57.139Z,19.20
2022-11-16T06:41:01.779Z,23.53
2022-11-16T06:45:05.911Z,20.93
2022-11-16T06:49:09.943Z,18.60
2022-11-16T06:53:13.380Z,18.13
2022-11-16T06:57:18.567Z,20.23
2022-11-16T07:01:21.961Z,19.03
2022-11-16T07:05:26.322Z,17.40
2022-11-16T07:09:29.689Z,19.67
2022-11-16T07:13:35.117Z,20.27
2022-11-16T07:17:38.647Z,19.57
2022-11-16T07:21:42.019Z,17.77
2022-11-16T07:25:47.769Z,17.33
2022-11-16T07:29:52.759Z,16.20
2022-11-16T07:33:56.379Z,24.67
2022-11-16T07:37:59.687Z,18.47
2022-11-16T07:42:03.034Z,17.80
2022-11-16T07:50:41.506Z,17.23
2022-11-16T07:54:44.845Z,18.90
2022-11-16T07:58:48.190Z,18.00
2022-11-16T08:02:52.954Z,18.27
2022-11-16T08:06:56.331Z,21.03
2022-11-16T08:11:03.109Z,20.30
2022-11-16T08:15:07.386Z,20.37
2022-11-16T08:19:11.999Z,23.20
2022-11-16T08:23:16.107Z,23.47
2022-11-16T08:27:20.890Z,20.53
2022-11-16T08:31:27.076Z,19.60
2022-11-16T08:35:32.338Z,21.30
2022-11-16T08:39:36.852Z,20.47
2022-11-16T08:43:40.771Z,21.10
2022-11-16T08:47:45.245Z,21.20
2022-11-16T08:51:50.175Z,19.77
2022-11-16T08:55:54.094Z,20.70
2022-11-16T08:59:57.595Z,28.37
2022-11-16T09:04:03.538Z,22.67
2022-11-16T09:08:08.243Z,20.63
2022-11-16T09:12:11.633Z,19.50
2022-11-16T09:16:16.905Z,24.57
2022-11-16T09:20:20.393Z,21.40
2022-11-16T09:24:25.422Z,18.40
2022-11-16T09:28:29.096Z,18.70
2022-11-16T09:32:32.813Z,19.43
2022-11-16T09:36:37.022Z,20.00
2022-11-16T09:45:21.515Z,20.10
2022-11-16T09:49:30.440Z,19.90
2022-11-16T09:53:40.077Z,20.73
2022-11-16T09:57:43.574Z,20.80
2022-11-16T10:01:54.403Z,20.80
2022-11-16T10:10:42.752Z,19.40
2022-11-16T10:15:10.921Z,19.63
2022-11-16T10:19:32.496Z,20.40
2022-11-16T10:24:14.613Z,19.73
2022-11-16T10:28:37.175Z,20.93
2022-11-16T10:32:50.970Z,19.50
2022-11-16T10:37:03.718Z,18.63
2022-11-16T10:46:04.915Z,19.80
2022-11-16T10:50:41.357Z,22.20
2022-11-16T10:54:46.918Z,18.70
2022-11-16T10:58:52.967Z,19.67
2022-11-16T11:03:52.254Z,20.90
2022-11-16T11:08:06.877Z,20.53
2022-11-16T11:12:38.912Z,20.77
2022-11-16T11:16:44.598Z,22.63
2022-11-16T11:20:51.344Z,20.53
2022-11-16T11:25:03.779Z,18.60
2022-11-16T11:29:27.808Z,19.40
2022-11-16T11:33:53.483Z,20.77
2022-11-16T11:38:04.792Z,19.00
2022-11-16T11:46:56.083Z,19.00
2022-11-16T11:55:20.153Z,18.23
2022-11-16T11:59:26.939Z,17.10
2022-11-16T12:04:03.038Z,18.67
2022-11-16T12:08:31.013Z,17.33
2022-11-16T12:12:51.391Z,17.23
2022-11-16T12:17:04.368Z,20.33
2022-11-16T12:21:15.948Z,16.93
2022-11-16T12:25:31.453Z,14.40
2022-11-16T12:29:55.234Z,14.80
2022-11-16T12:44:56.413Z,13.80
2022-11-16T12:49:32.909Z,13.00
2022-11-16T12:55:24.953Z,12.53
2022-11-16T12:59:58.158Z,12.47
2022-11-16T13:04:07.050Z,12.63
2022-11-16T13:08:14.596Z,11.77
2022-11-16T13:12:23.588Z,11.83
2022-11-16T13:16:28.980Z,12.00
2022-11-16T13:20:40.835Z,10.30
2022-11-16T13:24:51.622Z,12.37
2022-11-16T13:29:01.786Z,10.60
2022-11-16T13:33:23.704Z,11.10
2022-11-16T13:37:50.093Z,11.37
2022-11-16T13:42:07.349Z,11.47
2022-11-16T13:46:27.624Z,10.87
2022-11-16T13:50:41.381Z,10.63
2022-11-16T13:54:48.999Z,10.77
2022-11-16T13:58:56.002Z,10.50
2022-11-16T14:03:40.031Z,11.50
2022-11-16T14:07:48.171Z,10.90
2022-11-16T14:11:51.638Z,11.07
2022-11-16T14:16:56.018Z,9.97
2022-11-16T14:21:00.696Z,10.60
2022-11-16T14:25:14.381Z,11.07
2022-11-16T14:29:36.723Z,11.07
2022-11-16T14:33:40.882Z,11.17
2022-11-16T14:37:44.461Z,11.57
2022-11-16T14:41:49.564Z,12.07
2022-11-16T14:45:56.263Z,12.10
2022-11-16T14:49:59.799Z,12.20
2022-11-16T14:54:06.356Z,12.20
2022-11-16T14:58:18.198Z,12.50
2022-11-16T15:02:32.151Z,10.80
2022-11-16T15:06:43.424Z,12.83
2022-11-16T15:10:52.570Z,13.30
2022-11-16T15:15:02.203Z,14.47
2022-11-16T15:19:13.155Z,14.50
2022-11-16T15:23:17.116Z,15.17
2022-11-16T15:27:28.942Z,14.63
2022-11-16T15:31:35.879Z,16.00
2022-11-16T15:35:39.897Z,14.83
2022-11-16T15:39:44.228Z,16.27
2022-11-16T15:44:12.300Z,14.40
2022-11-16T15:48:21.195Z,15.93
2022-11-16T15:52:43.719Z,16.17
2022-11-16T15:56:47.872Z,15.43
2022-11-16T16:00:51.345Z,14.90
2022-11-16T16:04:56.205Z,16.80
2022-11-16T16:09:06.123Z,15.30
2022-11-16T16:13:27.610Z,14.80
2022-11-16T16:17:31.706Z,14.57
2022-11-16T16:21:50.516Z,15.37
2022-11-16T16:25:53.859Z,17.13
2022-11-16T16:30:02.036Z,15.97
2022-11-16T16:34:14.537Z,15.93
2022-11-16T16:38:22.127Z,16.70
2022-11-16T16:42:27.049Z,16.50
2022-11-16T16:46:30.969Z,16.60
2022-11-16T16:50:34.687Z,16.60
2022-11-16T16:54:40.941Z,15.13
2022-11-16T16:58:44.426Z,17.20
2022-11-16T17:02:48.178Z,17.87
2022-11-16T17:06:53.722Z,15.97
2022-11-16T17:10:59.445Z,15.70
2022-11-16T17:15:05.504Z,15.53
2022-11-16T17:19:11.714Z,16.10
2022-11-16T17:23:23.310Z,17.00
2022-11-16T17:27:34.411Z,18.80
2022-11-16T17:31:43.629Z,16.10
2022-11-16T17:35:58.273Z,15.70
2022-11-16T17:40:06.671Z,15.57
2022-11-16T17:44:14.932Z,18.10
2022-11-16T17:48:23.071Z,17.27
2022-11-16T17:52:28.522Z,19.50
2022-11-16T17:56:32.717Z,18.80
2022-11-16T18:00:39.501Z,16.87
2022-11-16T18:04:51.436Z,16.50
2022-11-16T18:08:56.303Z,17.73
2022-11-16T18:13:02.166Z,18.43
2022-11-16T18:17:07.875Z,17.77
2022-11-16T18:21:20.107Z,19.77
2022-11-16T18:25:32.998Z,18.40
2022-11-16T18:29:37.762Z,18.40
2022-11-16T18:33:44.798Z,19.73
2022-11-16T18:37:52.107Z,21.77
2022-11-16T18:41:56.202Z,19.13
2022-11-16T18:46:00.788Z,19.27
2022-11-16T18:50:18.066Z,20.40
2022-11-16T18:54:28.776Z,20.07
2022-11-16T18:58:50.371Z,21.57
2022-11-16T19:02:58.452Z,21.90
2022-11-16T19:07:07.118Z,22.83
2022-11-16T19:11:15.107Z,20.20
2022-11-16T19:15:28.974Z,20.87
2022-11-16T19:19:39.083Z,22.30
2022-11-16T19:24:00.860Z,21.23
2022-11-16T19:28:12.981Z,20.67
2022-11-16T19:32:28.408Z,22.70
2022-11-16T19:36:36.344Z,24.77
2022-11-16T19:40:43.941Z,22.63
2022-11-16T19:44:49.615Z,23.50
2022-11-16T19:49:00.020Z,24.60
2022-11-16T19:53:09.945Z,24.33
2022-11-16T19:57:26.667Z,23.03
2022-11-16T20:01:33.239Z,23.67
2022-11-16T20:05:39.145Z,22.80
2022-11-16T20:09:53.466Z,25.67
2022-11-16T20:14:04.847Z,23.20
2022-11-16T20:18:11.853Z,23.53
2022-11-16T20:22:20.634Z,23.37
2022-11-16T20:26:32.515Z,22.80
2022-11-16T20:30:39.728Z,21.97
2022-11-16T20:34:44.457Z,23.43
2022-11-16T20:38:53.308Z,23.43
2022-11-16T20:43:00.659Z,22.67
2022-11-16T20:47:07.750Z,23.33
2022-11-16T20:51:13.667Z,21.47
2022-11-16T20:55:19.043Z,22.37
2022-11-16T20:59:22.698Z,21.93
2022-11-16T21:03:28.311Z,23.13
2022-11-16T21:07:32.804Z,20.73
2022-11-16T21:11:56.177Z,22.30
2022-11-16T21:16:00.853Z,22.70
2022-11-16T21:20:26.444Z,20.00
2022-11-16T21:24:39.263Z,21.80
2022-11-16T21:28:45.131Z,24.47
2022-11-16T21:32:48.524Z,23.30
2022-11-16T21:36:53.318Z,24.00
2022-11-16T21:40:58.021Z,22.23
2022-11-16T21:45:01.665Z,21.87
2022-11-16T21:49:04.965Z,21.73
2022-11-16T21:53:10.129Z,20.67
2022-11-16T21:57:13.573Z,21.60
2022-11-16T22:01:17.020Z,21.10
2022-11-16T22:05:37.926Z,22.20
2022-11-16T22:09:42.628Z,20.90
2022-11-16T22:13:46.098Z,20.40
2022-11-16T22:17:49.371Z,19.97
2022-11-16T22:21:52.655Z,21.10
2022-11-16T22:26:02.275Z,22.80
2022-11-16T22:30:07.205Z,21.57
2022-11-16T22:34:10.511Z,22.07
2022-11-16T22:38:13.783Z,23.40
2022-11-16T22:42:18.456Z,23.33
2022-11-16T22:46:21.743Z,23.90
2022-11-16T22:50:24.990Z,20.87
2022-11-16T22:54:30.284Z,25.67
2022-11-16T22:58:35.133Z,23.17
2022-11-16T23:02:38.457Z,20.90
2022-11-16T23:06:41.825Z,22.13
2022-11-16T23:10:59.004Z,22.33
2022-11-16T23:15:20.939Z,20.90
2022-11-16T23:19:42.087Z,21.83
2022-11-16T23:24:02.845Z,20.90
2022-11-16T23:28:08.995Z,22.17
2022-11-16T23:32:14.029Z,21.40
2022-11-16T23:36:17.340Z,21.93
2022-11-16T23:40:22.200Z,23.83
2022-11-16T23:44:25.522Z,22.07
2022-11-16T23:48:30.175Z,24.13
2022-11-16T23:52:33.457Z,24.33
2022-11-16T23:56:37.175Z,26.03
